sensor_id;sensor_type;location;lat;lon;timestamp;pressure;altitude;pressure_sealevel;temperature;humidity
25156;BME280;71253;51.496;7.606;2023-07-20T00:01:04;99971.31;;;14.02;94.89
25156;BME280;71253;51.496;7.606;2023-07-20T00:06:06;99978.00;;;14.18;94.63
25156;BME280;71253;51.496;7.606;2023-07-20T00:11:10;99978.50;;;14.40;92.13
25156;BME280;71253;51.496;7.606;2023-07-20T00:16:21;99989.03;;;14.34;92.26
25156;BME280;71253;51.496;7.606;2023-07-20T00:21:22;99983.94;;;14.26;92.32
25156;BME280;71253;51.496;7.606;2023-07-20T00:26:26;99979.81;;;14.14;92.90
25156;BME280;71253;51.496;7.606;2023-07-20T00:31:31;99979.81;;;14.14;93.27
25156;BME280;71253;51.496;7.606;2023-07-20T00:36:33;99969.41;;;14.14;92.77
25156;BME280;71253;51.496;7.606;2023-07-20T00:41:42;99964.09;;;14.20;93.14
25156;BME280;71253;51.496;7.606;2023-07-20T00:46:48;99969.19;;;14.27;92.71
25156;BME280;71253;51.496;7.606;2023-07-20T00:51:50;99974.00;;;14.53;91.34
25156;BME280;71253;51.496;7.606;2023-07-20T00:56:54;99975.53;;;14.64;90.47
25156;BME280;71253;51.496;7.606;2023-07-20T01:01:57;99965.09;;;14.66;90.33
25156;BME280;71253;51.496;7.606;2023-07-20T01:12:31;99956.41;;;14.65;89.45
25156;BME280;71253;51.496;7.606;2023-07-20T01:17:35;99959.88;;;14.66;89.04
25156;BME280;71253;51.496;7.606;2023-07-20T01:23:11;99956.34;;;14.70;88.66
25156;BME280;71253;51.496;7.606;2023-07-20T01:34:01;99951.16;;;14.67;88.59
25156;BME280;71253;51.496;7.606;2023-07-20T01:39:08;99952.03;;;14.67;88.57
25156;BME280;71253;51.496;7.606;2023-07-20T01:44:26;99941.72;;;14.63;88.83
25156;BME280;71253;51.496;7.606;2023-07-20T01:49:29;99948.75;;;14.58;88.92
25156;BME280;71253;51.496;7.606;2023-07-20T01:54:34;99950.69;;;14.43;89.50
25156;BME280;71253;51.496;7.606;2023-07-20T01:59:36;99950.16;;;14.23;90.45
25156;BME280;71253;51.496;7.606;2023-07-20T02:04:38;99951.69;;;14.35;89.79
25156;BME280;71253;51.496;7.606;2023-07-20T02:09:40;99942.25;;;14.31;89.66
25156;BME280;71253;51.496;7.606;2023-07-20T02:14:42;99941.69;;;14.10;90.81
25156;BME280;71253;51.496;7.606;2023-07-20T02:19:45;99937.78;;;13.83;91.11
25156;BME280;71253;51.496;7.606;2023-07-20T02:24:48;99934.63;;;13.61;92.22
25156;BME280;71253;51.496;7.606;2023-07-20T02:29:50;99932.19;;;13.51;92.90
25156;BME280;71253;51.496;7.606;2023-07-20T02:34:55;99926.94;;;13.52;93.89
25156;BME280;71253;51.496;7.606;2023-07-20T02:39:57;99932.75;;;13.73;92.85
25156;BME280;71253;51.496;7.606;2023-07-20T02:45:07;99938.66;;;13.81;92.05
25156;BME280;71253;51.496;7.606;2023-07-20T02:50:13;99943.09;;;13.76;92.53
25156;BME280;71253;51.496;7.606;2023-07-20T02:55:15;99945.72;;;13.76;93.22
25156;BME280;71253;51.496;7.606;2023-07-20T03:00:21;99941.09;;;13.93;93.29
25156;BME280;71253;51.496;7.606;2023-07-20T03:05:23;99956.31;;;14.19;92.11
25156;BME280;71253;51.496;7.606;2023-07-20T03:10:43;99968.47;;;14.17;92.90
25156;BME280;71253;51.496;7.606;2023-07-20T03:15:47;99967.59;;;14.18;93.04
25156;BME280;71253;51.496;7.606;2023-07-20T03:20:57;99971.00;;;14.21;93.44
25156;BME280;71253;51.496;7.606;2023-07-20T03:25:59;99967.56;;;14.21;93.64
25156;BME280;71253;51.496;7.606;2023-07-20T03:31:02;99975.38;;;14.19;94.00
25156;BME280;71253;51.496;7.606;2023-07-20T03:36:07;99973.75;;;14.14;94.47
25156;BME280;71253;51.496;7.606;2023-07-20T03:41:09;99972.06;;;14.10;94.66
25156;BME280;71253;51.496;7.606;2023-07-20T03:46:11;99969.44;;;14.11;95.11
25156;BME280;71253;51.496;7.606;2023-07-20T03:51:21;99965.06;;;14.13;94.96
25156;BME280;71253;51.496;7.606;2023-07-20T03:56:23;99964.19;;;14.13;94.94
25156;BME280;71253;51.496;7.606;2023-07-20T04:01:29;99965.94;;;14.12;95.02
25156;BME280;71253;51.496;7.606;2023-07-20T04:06:34;99969.44;;;14.11;95.51
25156;BME280;71253;51.496;7.606;2023-07-20T04:11:37;99966.78;;;14.13;95.06
25156;BME280;71253;51.496;7.606;2023-07-20T04:16:38;99975.41;;;14.16;95.18
25156;BME280;71253;51.496;7.606;2023-07-20T04:21:41;99974.56;;;14.16;94.92
25156;BME280;71253;51.496;7.606;2023-07-20T04:26:44;99983.19;;;14.19;95.11
25156;BME280;71253;51.496;7.606;2023-07-20T04:31:46;99984.91;;;14.20;95.14
25156;BME280;71253;51.496;7.606;2023-07-20T04:36:48;99992.78;;;14.16;95.77
25156;BME280;71253;51.496;7.606;2023-07-20T04:41:51;99996.94;;;14.28;96.06
25156;BME280;71253;51.496;7.606;2023-07-20T04:46:55;99999.50;;;14.31;95.88
25156;BME280;71253;51.496;7.606;2023-07-20T04:51:57;99995.19;;;14.28;95.76
25156;BME280;71253;51.496;7.606;2023-07-20T04:57:01;100003.81;;;14.32;95.69
25156;BME280;71253;51.496;7.606;2023-07-20T05:02:04;100007.25;;;14.35;95.70
25156;BME280;71253;51.496;7.606;2023-07-20T05:07:08;100003.72;;;14.38;95.35
25156;BME280;71253;51.496;7.606;2023-07-20T05:12:10;100007.03;;;14.46;95.18
25156;BME280;71253;51.496;7.606;2023-07-20T05:17:14;100013.00;;;14.56;94.29
25156;BME280;71253;51.496;7.606;2023-07-20T05:22:16;100013.06;;;14.51;92.47
25156;BME280;71253;51.496;7.606;2023-07-20T05:27:18;100013.06;;;14.53;92.82
25156;BME280;71253;51.496;7.606;2023-07-20T05:32:20;100027.53;;;14.67;91.86
25156;BME280;71253;51.496;7.606;2023-07-20T05:37:22;100027.50;;;14.70;92.33
25156;BME280;71253;51.496;7.606;2023-07-20T05:42:24;100030.06;;;14.72;92.15
25156;BME280;71253;51.496;7.606;2023-07-20T05:47:26;100030.81;;;14.79;92.28
25156;BME280;71253;51.496;7.606;2023-07-20T05:52:28;100034.78;;;15.01;91.87
25156;BME280;71253;51.496;7.606;2023-07-20T05:57:31;100041.44;;;15.16;91.37
25156;BME280;71253;51.496;7.606;2023-07-20T06:02:36;100054.75;;;15.02;90.99
25156;BME280;71253;51.496;7.606;2023-07-20T06:07:38;100060.84;;;14.99;90.00
25156;BME280;71253;51.496;7.606;2023-07-20T06:12:45;100070.94;;;15.19;90.48
25156;BME280;71253;51.496;7.606;2023-07-20T06:17:47;100071.53;;;15.34;88.25
25156;BME280;71253;51.496;7.606;2023-07-20T06:22:49;100072.66;;;15.65;86.69
25156;BME280;71253;51.496;7.606;2023-07-20T06:28:06;100068.81;;;15.85;85.54
25156;BME280;71253;51.496;7.606;2023-07-20T06:33:08;100078.03;;;16.40;85.86
25156;BME280;71253;51.496;7.606;2023-07-20T06:38:10;100080.53;;;17.16;81.58
25156;BME280;71253;51.496;7.606;2023-07-20T06:43:14;100082.72;;;17.95;75.92
25156;BME280;71253;51.496;7.606;2023-07-20T06:48:19;100079.06;;;18.00;74.96
25156;BME280;71253;51.496;7.606;2023-07-20T06:53:22;100077.06;;;18.36;73.67
25156;BME280;71253;51.496;7.606;2023-07-20T06:58:24;100072.31;;;18.49;73.46
25156;BME280;71253;51.496;7.606;2023-07-20T07:03:26;100070.41;;;19.07;68.47
25156;BME280;71253;51.496;7.606;2023-07-20T07:08:28;100071.88;;;19.41;68.61
25156;BME280;71253;51.496;7.606;2023-07-20T07:13:31;100072.38;;;20.87;64.34
25156;BME280;71253;51.496;7.606;2023-07-20T07:18:34;100076.03;;;20.17;64.98
25156;BME280;71253;51.496;7.606;2023-07-20T07:23:38;100088.97;;;18.19;69.78
25156;BME280;71253;51.496;7.606;2023-07-20T07:28:53;100086.56;;;19.93;69.92
25156;BME280;71253;51.496;7.606;2023-07-20T07:33:57;100080.66;;;23.42;58.08
25156;BME280;71253;51.496;7.606;2023-07-20T07:39:00;100095.50;;;22.20;57.55
25156;BME280;71253;51.496;7.606;2023-07-20T07:44:23;100096.28;;;23.79;50.23
25156;BME280;71253;51.496;7.606;2023-07-20T07:49:26;100100.41;;;26.80;42.66
25156;BME280;71253;51.496;7.606;2023-07-20T07:54:30;100099.13;;;24.71;49.06
25156;BME280;71253;51.496;7.606;2023-07-20T07:59:33;100105.63;;;23.69;50.97
25156;BME280;71253;51.496;7.606;2023-07-20T08:04:37;100116.09;;;20.45;59.84
25156;BME280;71253;51.496;7.606;2023-07-20T08:09:40;100107.47;;;18.97;66.30
25156;BME280;71253;51.496;7.606;2023-07-20T08:14:42;100117.25;;;18.91;68.00
25156;BME280;71253;51.496;7.606;2023-07-20T08:19:44;100112.19;;;23.45;51.30
25156;BME280;71253;51.496;7.606;2023-07-20T08:24:46;100111.88;;;24.49;49.81
25156;BME280;71253;51.496;7.606;2023-07-20T08:29:48;100101.56;;;25.50;43.22
25156;BME280;71253;51.496;7.606;2023-07-20T08:34:50;100115.16;;;25.44;46.89
25156;BME280;71253;51.496;7.606;2023-07-20T08:39:53;100128.88;;;23.10;49.17
25156;BME280;71253;51.496;7.606;2023-07-20T08:44:55;100124.78;;;21.54;56.13
25156;BME280;71253;51.496;7.606;2023-07-20T08:49:58;100123.22;;;25.57;43.52
25156;BME280;71253;51.496;7.606;2023-07-20T08:55:00;100125.34;;;26.36;43.55
25156;BME280;71253;51.496;7.606;2023-07-20T09:00:03;100132.38;;;29.75;37.62
25156;BME280;71253;51.496;7.606;2023-07-20T09:05:07;100120.69;;;31.19;33.12
25156;BME280;71253;51.496;7.606;2023-07-20T09:10:11;100134.47;;;25.60;41.53
25156;BME280;71253;51.496;7.606;2023-07-20T09:15:14;100129.34;;;27.24;39.21
25156;BME280;71253;51.496;7.606;2023-07-20T09:20:18;100124.78;;;31.02;31.28
25156;BME280;71253;51.496;7.606;2023-07-20T09:25:22;100122.91;;;31.55;31.51
25156;BME280;71253;51.496;7.606;2023-07-20T09:30:54;100113.50;;;31.19;28.39
25156;BME280;71253;51.496;7.606;2023-07-20T09:36:02;100119.94;;;33.94;28.01
25156;BME280;71253;51.496;7.606;2023-07-20T09:41:14;100120.53;;;28.13;34.03
25156;BME280;71253;51.496;7.606;2023-07-20T09:46:23;100116.59;;;27.02;37.31
25156;BME280;71253;51.496;7.606;2023-07-20T09:51:28;100109.25;;;29.29;35.29
25156;BME280;71253;51.496;7.606;2023-07-20T09:56:32;100113.97;;;31.97;28.56
25156;BME280;71253;51.496;7.606;2023-07-20T10:01:36;100116.72;;;30.26;33.30
25156;BME280;71253;51.496;7.606;2023-07-20T10:06:42;100113.28;;;33.22;26.70
25156;BME280;71253;51.496;7.606;2023-07-20T10:11:49;100115.25;;;35.48;22.43
25156;BME280;71253;51.496;7.606;2023-07-20T10:17:00;100110.03;;;38.42;20.11
25156;BME280;71253;51.496;7.606;2023-07-20T10:22:14;100104.47;;;34.69;23.82
25156;BME280;71253;51.496;7.606;2023-07-20T10:27:17;100113.13;;;33.53;24.81
25156;BME280;71253;51.496;7.606;2023-07-20T10:32:21;100104.34;;;34.25;24.11
25156;BME280;71253;51.496;7.606;2023-07-20T10:37:56;100096.78;;;35.53;19.00
25156;BME280;71253;51.496;7.606;2023-07-20T10:43:10;100090.19;;;32.53;24.92
25156;BME280;71253;51.496;7.606;2023-07-20T10:48:23;100092.19;;;32.11;27.74
25156;BME280;71253;51.496;7.606;2023-07-20T11:05:08;100095.09;;;29.28;28.39
25156;BME280;71253;51.496;7.606;2023-07-20T11:10:30;100086.47;;;34.16;22.23
25156;BME280;71253;51.496;7.606;2023-07-20T11:21:07;100095.66;;;30.55;29.60
25156;BME280;71253;51.496;7.606;2023-07-20T11:26:10;100085.16;;;29.30;28.20
25156;BME280;71253;51.496;7.606;2023-07-20T11:31:13;100070.38;;;33.32;24.61
25156;BME280;71253;51.496;7.606;2023-07-20T11:36:17;100067.72;;;35.57;20.58
25156;BME280;71253;51.496;7.606;2023-07-20T11:41:33;100066.22;;;34.49;21.90
25156;BME280;71253;51.496;7.606;2023-07-20T11:46:35;100071.22;;;30.28;28.36
25156;BME280;71253;51.496;7.606;2023-07-20T11:51:45;100063.28;;;30.49;28.12
25156;BME280;71253;51.496;7.606;2023-07-20T11:57:03;100062.00;;;32.59;25.17
25156;BME280;71253;51.496;7.606;2023-07-20T12:02:06;100054.03;;;33.44;21.54
25156;BME280;71253;51.496;7.606;2023-07-20T12:07:34;100054.19;;;31.46;25.51
25156;BME280;71253;51.496;7.606;2023-07-20T12:12:40;100056.00;;;26.69;32.33
25156;BME280;71253;51.496;7.606;2023-07-20T12:17:48;100049.38;;;30.66;27.35
25156;BME280;71253;51.496;7.606;2023-07-20T12:23:01;100044.13;;;36.27;19.26
25156;BME280;71253;51.496;7.606;2023-07-20T12:28:19;100044.78;;;35.79;19.27
25156;BME280;71253;51.496;7.606;2023-07-20T12:33:33;100048.09;;;36.07;18.29
25156;BME280;71253;51.496;7.606;2023-07-20T12:38:39;100050.38;;;30.65;24.14
25156;BME280;71253;51.496;7.606;2023-07-20T12:43:55;100038.59;;;33.84;22.57
25156;BME280;71253;51.496;7.606;2023-07-20T12:48:56;100030.31;;;37.20;17.59
25156;BME280;71253;51.496;7.606;2023-07-20T12:53:58;100033.38;;;37.01;18.16
25156;BME280;71253;51.496;7.606;2023-07-20T12:59:01;100027.19;;;32.68;21.76
25156;BME280;71253;51.496;7.606;2023-07-20T13:04:03;100027.84;;;31.72;24.05
25156;BME280;71253;51.496;7.606;2023-07-20T13:09:07;100024.59;;;30.00;26.12
25156;BME280;71253;51.496;7.606;2023-07-20T13:14:09;100016.84;;;28.48;26.50
25156;BME280;71253;51.496;7.606;2023-07-20T13:19:12;100021.50;;;29.61;27.07
25156;BME280;71253;51.496;7.606;2023-07-20T13:24:29;100017.50;;;31.06;23.43
25156;BME280;71253;51.496;7.606;2023-07-20T13:29:31;100013.81;;;33.44;22.20
25156;BME280;71253;51.496;7.606;2023-07-20T13:34:34;100012.63;;;35.69;18.82
25156;BME280;71253;51.496;7.606;2023-07-20T13:39:38;100008.50;;;34.79;18.79
25156;BME280;71253;51.496;7.606;2023-07-20T13:44:40;100012.94;;;30.97;23.89
25156;BME280;71253;51.496;7.606;2023-07-20T13:49:43;100002.69;;;31.84;23.88
25156;BME280;71253;51.496;7.606;2023-07-20T13:54:49;100008.97;;;30.92;23.90
25156;BME280;71253;51.496;7.606;2023-07-20T13:59:54;100000.94;;;28.11;25.91
25156;BME280;71253;51.496;7.606;2023-07-20T14:04:56;99999.91;;;26.88;28.32
25156;BME280;71253;51.496;7.606;2023-07-20T14:10:01;99993.56;;;26.23;31.95
25156;BME280;71253;51.496;7.606;2023-07-20T14:15:06;99991.16;;;26.06;32.04
25156;BME280;71253;51.496;7.606;2023-07-20T14:20:12;99991.91;;;25.24;31.82
25156;BME280;71253;51.496;7.606;2023-07-20T14:25:16;99986.84;;;24.47;32.21
25156;BME280;71253;51.496;7.606;2023-07-20T14:30:21;99986.25;;;24.26;34.56
25156;BME280;71253;51.496;7.606;2023-07-20T14:35:24;99981.03;;;24.70;31.33
25156;BME280;71253;51.496;7.606;2023-07-20T14:40:26;99980.53;;;25.93;31.29
25156;BME280;71253;51.496;7.606;2023-07-20T14:45:33;99972.72;;;26.97;29.93
25156;BME280;71253;51.496;7.606;2023-07-20T14:50:35;99959.84;;;29.98;27.71
25156;BME280;71253;51.496;7.606;2023-07-20T14:55:37;99970.75;;;30.91;24.82
25156;BME280;71253;51.496;7.606;2023-07-20T15:00:39;99960.22;;;28.35;27.71
25156;BME280;71253;51.496;7.606;2023-07-20T15:05:42;99953.09;;;27.25;29.12
25156;BME280;71253;51.496;7.606;2023-07-20T15:10:44;99954.28;;;28.66;25.80
25156;BME280;71253;51.496;7.606;2023-07-20T15:15:46;99951.59;;;28.07;27.11
25156;BME280;71253;51.496;7.606;2023-07-20T15:20:50;99961.31;;;26.69;29.19
25156;BME280;71253;51.496;7.606;2023-07-20T15:25:52;99958.13;;;25.56;31.82
25156;BME280;71253;51.496;7.606;2023-07-20T15:31:04;99946.56;;;25.00;32.69
25156;BME280;71253;51.496;7.606;2023-07-20T15:36:06;99947.56;;;25.13;32.38
25156;BME280;71253;51.496;7.606;2023-07-20T15:41:10;99949.84;;;25.89;31.84
25156;BME280;71253;51.496;7.606;2023-07-20T15:51:23;99927.91;;;27.05;30.84
25156;BME280;71253;51.496;7.606;2023-07-20T15:56:26;99926.31;;;28.61;28.15
25156;BME280;71253;51.496;7.606;2023-07-20T16:01:27;99921.69;;;29.09;26.72
25156;BME280;71253;51.496;7.606;2023-07-20T16:06:33;99930.44;;;27.32;29.09
25156;BME280;71253;51.496;7.606;2023-07-20T16:11:35;99931.00;;;24.96;33.69
25156;BME280;71253;51.496;7.606;2023-07-20T16:16:37;99924.81;;;23.91;37.00
25156;BME280;71253;51.496;7.606;2023-07-20T16:21:53;99916.16;;;23.73;35.75
25156;BME280;71253;51.496;7.606;2023-07-20T16:26:55;99917.47;;;23.48;36.23
25156;BME280;71253;51.496;7.606;2023-07-20T16:32:03;99905.03;;;23.34;36.68
25156;BME280;71253;51.496;7.606;2023-07-20T16:37:07;99906.84;;;23.50;37.74
25156;BME280;71253;51.496;7.606;2023-07-20T16:42:30;99901.19;;;24.33;34.56
25156;BME280;71253;51.496;7.606;2023-07-20T16:47:37;99895.91;;;24.33;35.17
25156;BME280;71253;51.496;7.606;2023-07-20T16:52:44;99887.13;;;24.33;34.83
25156;BME280;71253;51.496;7.606;2023-07-20T16:57:46;99888.47;;;24.10;36.30
25156;BME280;71253;51.496;7.606;2023-07-20T17:02:48;99878.81;;;23.31;37.17
25156;BME280;71253;51.496;7.606;2023-07-20T17:07:51;99875.38;;;22.98;37.27
25156;BME280;71253;51.496;7.606;2023-07-20T17:12:53;99871.13;;;22.95;36.32
25156;BME280;71253;51.496;7.606;2023-07-20T17:17:54;99868.00;;;22.87;37.72
25156;BME280;71253;51.496;7.606;2023-07-20T17:23:00;99874.28;;;22.34;39.11
25156;BME280;71253;51.496;7.606;2023-07-20T17:28:02;99869.53;;;22.23;37.96
25156;BME280;71253;51.496;7.606;2023-07-20T17:33:11;99863.81;;;22.33;39.68
25156;BME280;71253;51.496;7.606;2023-07-20T17:38:13;99863.19;;;22.62;40.28
25156;BME280;71253;51.496;7.606;2023-07-20T17:43:19;99862.28;;;22.46;39.05
25156;BME280;71253;51.496;7.606;2023-07-20T17:48:22;99859.28;;;22.00;39.18
25156;BME280;71253;51.496;7.606;2023-07-20T17:53:39;99860.41;;;21.60;40.56
25156;BME280;71253;51.496;7.606;2023-07-20T17:58:41;99855.69;;;21.47;41.04
25156;BME280;71253;51.496;7.606;2023-07-20T18:03:45;99864.41;;;21.31;41.67
25156;BME280;71253;51.496;7.606;2023-07-20T18:08:50;99851.88;;;21.36;41.06
25156;BME280;71253;51.496;7.606;2023-07-20T18:13:54;99847.66;;;21.13;43.63
25156;BME280;71253;51.496;7.606;2023-07-20T18:18:57;99850.25;;;20.75;42.09
25156;BME280;71253;51.496;7.606;2023-07-20T18:24:14;99851.84;;;20.79;44.95
25156;BME280;71253;51.496;7.606;2023-07-20T18:29:16;99847.63;;;20.75;44.84
25156;BME280;71253;51.496;7.606;2023-07-20T18:34:18;99854.59;;;20.76;43.56
25156;BME280;71253;51.496;7.606;2023-07-20T18:39:27;99854.78;;;20.53;45.82
25156;BME280;71253;51.496;7.606;2023-07-20T18:44:31;99838.84;;;20.15;46.75
25156;BME280;71253;51.496;7.606;2023-07-20T18:49:33;99843.00;;;19.78;48.30
25156;BME280;71253;51.496;7.606;2023-07-20T18:54:35;99850.59;;;19.40;49.96
25156;BME280;71253;51.496;7.606;2023-07-20T18:59:38;99848.63;;;19.24;52.72
25156;BME280;71253;51.496;7.606;2023-07-20T19:04:46;99855.00;;;18.95;54.15
25156;BME280;71253;51.496;7.606;2023-07-20T19:09:49;99865.72;;;18.88;53.47
25156;BME280;71253;51.496;7.606;2023-07-20T19:15:00;99867.03;;;18.77;54.86
25156;BME280;71253;51.496;7.606;2023-07-20T19:20:16;99856.47;;;18.53;55.25
25156;BME280;71253;51.496;7.606;2023-07-20T19:25:19;99850.97;;;18.36;57.48
25156;BME280;71253;51.496;7.606;2023-07-20T19:30:23;99855.00;;;18.20;56.81
25156;BME280;71253;51.496;7.606;2023-07-20T19:35:26;99863.72;;;18.20;58.91
25156;BME280;71253;51.496;7.606;2023-07-20T19:40:28;99874.25;;;17.92;64.83
25156;BME280;71253;51.496;7.606;2023-07-20T19:45:31;99878.44;;;17.70;64.57
25156;BME280;71253;51.496;7.606;2023-07-20T19:50:43;99877.16;;;17.55;65.39
25156;BME280;71253;51.496;7.606;2023-07-20T19:55:48;99880.69;;;17.54;65.60
25156;BME280;71253;51.496;7.606;2023-07-20T20:00:50;99876.16;;;17.59;63.13
25156;BME280;71253;51.496;7.606;2023-07-20T20:05:55;99875.38;;;17.57;68.83
25156;BME280;71253;51.496;7.606;2023-07-20T20:10:59;99889.19;;;17.32;72.00
25156;BME280;71253;51.496;7.606;2023-07-20T20:16:04;99884.88;;;17.31;70.10
25156;BME280;71253;51.496;7.606;2023-07-20T20:21:22;99877.50;;;17.44;69.11
25156;BME280;71253;51.496;7.606;2023-07-20T20:26:26;99873.31;;;17.39;71.90
25156;BME280;71253;51.496;7.606;2023-07-20T20:31:44;99872.44;;;17.38;72.27
25156;BME280;71253;51.496;7.606;2023-07-20T20:36:53;99880.44;;;17.33;72.11
25156;BME280;71253;51.496;7.606;2023-07-20T20:41:55;99867.22;;;17.38;66.63
25156;BME280;71253;51.496;7.606;2023-07-20T20:46:57;99860.88;;;17.47;68.10
25156;BME280;71253;51.496;7.606;2023-07-20T20:52:10;99877.97;;;17.29;71.94
25156;BME280;71253;51.496;7.606;2023-07-20T20:57:14;99872.47;;;17.08;74.20
25156;BME280;71253;51.496;7.606;2023-07-20T21:02:16;99874.44;;;17.00;75.34
25156;BME280;71253;51.496;7.606;2023-07-20T21:07:19;99865.69;;;17.01;74.79
25156;BME280;71253;51.496;7.606;2023-07-20T21:12:23;99858.50;;;17.09;66.45
25156;BME280;71253;51.496;7.606;2023-07-20T21:17:27;99856.28;;;17.25;63.77
25156;BME280;71253;51.496;7.606;2023-07-20T21:22:32;99846.50;;;17.32;64.29
25156;BME280;71253;51.496;7.606;2023-07-20T21:27:37;99845.56;;;17.34;67.30
25156;BME280;71253;51.496;7.606;2023-07-20T21:32:40;99850.69;;;17.38;63.57
25156;BME280;71253;51.496;7.606;2023-07-20T21:37:43;99848.84;;;17.40;62.96
25156;BME280;71253;51.496;7.606;2023-07-20T21:42:45;99848.25;;;17.31;70.55
25156;BME280;71253;51.496;7.606;2023-07-20T21:47:47;99864.31;;;17.19;73.43
25156;BME280;71253;51.496;7.606;2023-07-20T21:52:56;99866.72;;;16.97;70.68
25156;BME280;71253;51.496;7.606;2023-07-20T21:57:58;99861.59;;;16.93;68.21
25156;BME280;71253;51.496;7.606;2023-07-20T22:03:03;99865.44;;;16.81;68.45
25156;BME280;71253;51.496;7.606;2023-07-20T22:08:06;99870.91;;;16.70;69.13
25156;BME280;71253;51.496;7.606;2023-07-20T22:13:09;99887.09;;;16.85;72.62
25156;BME280;71253;51.496;7.606;2023-07-20T22:18:13;99896.97;;;16.75;70.04
25156;BME280;71253;51.496;7.606;2023-07-20T22:23:23;99909.28;;;16.68;68.71
25156;BME280;71253;51.496;7.606;2023-07-20T22:28:25;99917.34;;;16.26;71.92
25156;BME280;71253;51.496;7.606;2023-07-20T22:33:26;99905.50;;;15.77;76.79
25156;BME280;71253;51.496;7.606;2023-07-20T22:38:42;99908.88;;;15.41;78.75
25156;BME280;71253;51.496;7.606;2023-07-20T22:43:54;99903.97;;;15.27;79.71
25156;BME280;71253;51.496;7.606;2023-07-20T22:48:57;99891.38;;;15.06;81.13
25156;BME280;71253;51.496;7.606;2023-07-20T22:54:08;99895.50;;;15.17;80.39
25156;BME280;71253;51.496;7.606;2023-07-20T22:59:15;99901.47;;;15.22;84.53
25156;BME280;71253;51.496;7.606;2023-07-20T23:04:17;99895.78;;;15.04;85.13
25156;BME280;71253;51.496;7.606;2023-07-20T23:09:20;99897.66;;;14.97;84.76
25156;BME280;71253;51.496;7.606;2023-07-20T23:14:23;99888.34;;;14.85;84.59
25156;BME280;71253;51.496;7.606;2023-07-20T23:19:37;99875.44;;;14.79;84.60
25156;BME280;71253;51.496;7.606;2023-07-20T23:24:42;99871.03;;;14.81;84.53
25156;BME280;71253;51.496;7.606;2023-07-20T23:29:49;99864.91;;;14.85;84.57
25156;BME280;71253;51.496;7.606;2023-07-20T23:34:51;99865.53;;;14.95;84.27
25156;BME280;71253;51.496;7.606;2023-07-20T23:39:57;99854.34;;;14.91;85.32
25156;BME280;71253;51.496;7.606;2023-07-20T23:44:59;99853.66;;;14.82;85.37
25156;BME280;71253;51.496;7.606;2023-07-20T23:50:04;99846.06;;;14.71;85.35
25156;BME280;71253;51.496;7.606;2023-07-20T23:55:06;99843.63;;;14.63;85.53
